sensor_id;sensor_type;location;lat;lon;timestamp;temperature;humidity
11204;DHT22;5659;49.408;11.116;2024-03-08T00:00:09;-1.20;99.90
11204;DHT22;5659;49.408;11.116;2024-03-08T00:02:36;-1.30;99.90
11204;DHT22;5659;49.408;11.116;2024-03-08T00:05:04;-1.70;99.90
11204;DHT22;5659;49.408;11.116;2024-03-08T00:07:29;-1.30;99.90
11204;DHT22;5659;49.408;11.116;2024-03-08T00:09:55;-1.30;99.90
11204;DHT22;5659;49.408;11.116;2024-03-08T00:12:21;-1.30;99.90
11204;DHT22;5659;49.408;11.116;2024-03-08T00:14:46;-1.30;99.90
11204;DHT22;5659;49.408;11.116;2024-03-08T00:17:12;-1.30;99.90
11204;DHT22;5659;49.408;11.116;2024-03-08T00:19:37;-1.30;99.90
11204;DHT22;5659;49.408;11.116;2024-03-08T00:22:03;-1.10;99.90
11204;DHT22;5659;49.408;11.116;2024-03-08T00:24:29;-1.30;99.90
11204;DHT22;5659;49.408;11.116;2024-03-08T00:26:56;-1.30;99.90
11204;DHT22;5659;49.408;11.116;2024-03-08T00:29:21;-1.30;99.90
11204;DHT22;5659;49.408;11.116;2024-03-08T00:31:47;-1.30;99.90
11204;DHT22;5659;49.408;11.116;2024-03-08T00:34:13;-1.30;99.90
11204;DHT22;5659;49.408;11.116;2024-03-08T00:36:38;-1.20;99.90
11204;DHT22;5659;49.408;11.116;2024-03-08T00:39:04;-1.30;99.90
11204;DHT22;5659;49.408;11.116;2024-03-08T00:41:32;-1.20;99.90
11204;DHT22;5659;49.408;11.116;2024-03-08T00:43:58;-1.20;99.90
11204;DHT22;5659;49.408;11.116;2024-03-08T00:46:23;-1.30;99.90
11204;DHT22;5659;49.408;11.116;2024-03-08T00:48:49;-1.20;99.90
11204;DHT22;5659;49.408;11.116;2024-03-08T00:51:15;-1.20;99.90
11204;DHT22;5659;49.408;11.116;2024-03-08T00:53:41;-1.30;99.90
11204;DHT22;5659;49.408;11.116;2024-03-08T00:56:08;-1.40;99.90
11204;DHT22;5659;49.408;11.116;2024-03-08T00:58:37;-1.40;99.90
11204;DHT22;5659;49.408;11.116;2024-03-08T01:01:03;-1.40;99.90
11204;DHT22;5659;49.408;11.116;2024-03-08T01:03:30;-1.40;99.90
11204;DHT22;5659;49.408;11.116;2024-03-08T01:05:57;-1.40;99.90
11204;DHT22;5659;49.408;11.116;2024-03-08T01:08:23;-1.40;99.90
11204;DHT22;5659;49.408;11.116;2024-03-08T01:10:48;-1.50;99.90
11204;DHT22;5659;49.408;11.116;2024-03-08T01:13:16;-1.40;99.90
11204;DHT22;5659;49.408;11.116;2024-03-08T01:15:41;-1.40;99.90
11204;DHT22;5659;49.408;11.116;2024-03-08T01:18:07;-1.40;99.90
11204;DHT22;5659;49.408;11.116;2024-03-08T01:20:33;-1.40;99.90
11204;DHT22;5659;49.408;11.116;2024-03-08T01:22:58;-1.40;99.90
11204;DHT22;5659;49.408;11.116;2024-03-08T01:25:24;-1.40;99.90
11204;DHT22;5659;49.408;11.116;2024-03-08T01:27:49;-1.40;99.90
11204;DHT22;5659;49.408;11.116;2024-03-08T01:30:15;-1.40;99.90
11204;DHT22;5659;49.408;11.116;2024-03-08T01:32:43;-1.40;99.90
11204;DHT22;5659;49.408;11.116;2024-03-08T01:35:09;-1.50;99.90
11204;DHT22;5659;49.408;11.116;2024-03-08T01:37:36;-1.50;99.90
11204;DHT22;5659;49.408;11.116;2024-03-08T01:40:01;-1.50;99.90
11204;DHT22;5659;49.408;11.116;2024-03-08T01:42:28;-1.40;99.90
11204;DHT22;5659;49.408;11.116;2024-03-08T01:44:54;-1.70;99.90
11204;DHT22;5659;49.408;11.116;2024-03-08T01:47:21;-1.40;99.90
11204;DHT22;5659;49.408;11.116;2024-03-08T01:49:51;-1.40;99.90
11204;DHT22;5659;49.408;11.116;2024-03-08T01:52:18;-1.40;99.90
11204;DHT22;5659;49.408;11.116;2024-03-08T01:54:48;-1.50;99.90
11204;DHT22;5659;49.408;11.116;2024-03-08T01:57:13;-1.40;99.90
11204;DHT22;5659;49.408;11.116;2024-03-08T01:59:40;-1.50;99.90
11204;DHT22;5659;49.408;11.116;2024-03-08T02:02:08;-1.50;99.90
11204;DHT22;5659;49.408;11.116;2024-03-08T02:04:34;-1.60;99.90
11204;DHT22;5659;49.408;11.116;2024-03-08T02:07:01;-1.60;99.90
11204;DHT22;5659;49.408;11.116;2024-03-08T02:09:27;-1.70;99.90
11204;DHT22;5659;49.408;11.116;2024-03-08T02:11:53;-1.70;99.90
11204;DHT22;5659;49.408;11.116;2024-03-08T02:14:20;-1.70;99.90
11204;DHT22;5659;49.408;11.116;2024-03-08T02:16:45;-1.60;99.90
11204;DHT22;5659;49.408;11.116;2024-03-08T02:19:11;-1.70;99.90
11204;DHT22;5659;49.408;11.116;2024-03-08T02:21:36;-1.60;99.90
11204;DHT22;5659;49.408;11.116;2024-03-08T02:24:04;-1.60;99.90
11204;DHT22;5659;49.408;11.116;2024-03-08T02:26:29;-1.60;99.90
11204;DHT22;5659;49.408;11.116;2024-03-08T02:28:55;-1.60;99.90
11204;DHT22;5659;49.408;11.116;2024-03-08T02:31:21;-1.60;99.90
11204;DHT22;5659;49.408;11.116;2024-03-08T02:33:47;-1.70;99.90
11204;DHT22;5659;49.408;11.116;2024-03-08T02:36:13;-1.70;99.90
11204;DHT22;5659;49.408;11.116;2024-03-08T02:38:38;-1.70;99.90
11204;DHT22;5659;49.408;11.116;2024-03-08T02:41:07;-1.60;99.90
11204;DHT22;5659;49.408;11.116;2024-03-08T02:43:34;-1.60;99.90
11204;DHT22;5659;49.408;11.116;2024-03-08T02:45:59;-1.60;99.90
11204;DHT22;5659;49.408;11.116;2024-03-08T02:48:25;-1.60;99.90
11204;DHT22;5659;49.408;11.116;2024-03-08T02:50:51;-1.60;99.90
11204;DHT22;5659;49.408;11.116;2024-03-08T02:53:16;-1.70;99.90
11204;DHT22;5659;49.408;11.116;2024-03-08T02:55:44;-1.70;99.90
11204;DHT22;5659;49.408;11.116;2024-03-08T02:58:10;-1.70;99.90
11204;DHT22;5659;49.408;11.116;2024-03-08T03:00:36;-1.70;99.90
11204;DHT22;5659;49.408;11.116;2024-03-08T03:03:02;-1.70;99.90
11204;DHT22;5659;49.408;11.116;2024-03-08T03:05:29;-1.70;99.90
11204;DHT22;5659;49.408;11.116;2024-03-08T03:07:55;-1.80;99.90
11204;DHT22;5659;49.408;11.116;2024-03-08T03:10:21;-1.80;99.90
11204;DHT22;5659;49.408;11.116;2024-03-08T03:12:47;-1.80;99.90
11204;DHT22;5659;49.408;11.116;2024-03-08T03:15:14;-1.80;99.90
11204;DHT22;5659;49.408;11.116;2024-03-08T03:17:40;-1.70;99.90
11204;DHT22;5659;49.408;11.116;2024-03-08T03:20:09;-1.70;99.90
11204;DHT22;5659;49.408;11.116;2024-03-08T03:22:38;-1.80;99.90
11204;DHT22;5659;49.408;11.116;2024-03-08T03:25:04;-1.80;99.90
11204;DHT22;5659;49.408;11.116;2024-03-08T03:27:32;-1.80;99.90
11204;DHT22;5659;49.408;11.116;2024-03-08T03:29:57;-1.80;99.90
11204;DHT22;5659;49.408;11.116;2024-03-08T03:32:23;-1.80;99.90
11204;DHT22;5659;49.408;11.116;2024-03-08T03:34:49;-1.80;99.90
11204;DHT22;5659;49.408;11.116;2024-03-08T03:37:18;-1.90;99.90
11204;DHT22;5659;49.408;11.116;2024-03-08T03:39:45;-1.90;99.90
11204;DHT22;5659;49.408;11.116;2024-03-08T03:42:19;-1.90;99.90
11204;DHT22;5659;49.408;11.116;2024-03-08T03:44:48;-1.90;99.90
11204;DHT22;5659;49.408;11.116;2024-03-08T03:47:14;-2.00;99.90
11204;DHT22;5659;49.408;11.116;2024-03-08T03:49:43;-2.00;99.90
11204;DHT22;5659;49.408;11.116;2024-03-08T03:52:09;-2.10;99.90
11204;DHT22;5659;49.408;11.116;2024-03-08T03:54:36;-2.00;99.90
11204;DHT22;5659;49.408;11.116;2024-03-08T03:57:01;-2.00;99.90
11204;DHT22;5659;49.408;11.116;2024-03-08T03:59:28;-2.00;99.90
11204;DHT22;5659;49.408;11.116;2024-03-08T04:01:54;-1.90;99.90
11204;DHT22;5659;49.408;11.116;2024-03-08T04:04:20;-2.00;99.90
11204;DHT22;5659;49.408;11.116;2024-03-08T04:06:46;-2.00;99.90
11204;DHT22;5659;49.408;11.116;2024-03-08T04:09:12;-2.00;99.90
11204;DHT22;5659;49.408;11.116;2024-03-08T04:11:38;-2.10;99.90
11204;DHT22;5659;49.408;11.116;2024-03-08T04:14:03;-2.10;99.90
11204;DHT22;5659;49.408;11.116;2024-03-08T04:16:30;-2.10;99.90
11204;DHT22;5659;49.408;11.116;2024-03-08T04:18:57;-2.20;99.90
11204;DHT22;5659;49.408;11.116;2024-03-08T04:21:22;-2.20;99.90
11204;DHT22;5659;49.408;11.116;2024-03-08T04:23:48;-2.10;99.90
11204;DHT22;5659;49.408;11.116;2024-03-08T04:26:14;-2.10;99.90
11204;DHT22;5659;49.408;11.116;2024-03-08T04:28:39;-2.10;99.90
11204;DHT22;5659;49.408;11.116;2024-03-08T04:31:05;-2.20;99.90
11204;DHT22;5659;49.408;11.116;2024-03-08T04:33:32;-2.20;99.90
11204;DHT22;5659;49.408;11.116;2024-03-08T04:35:58;-2.20;99.90
11204;DHT22;5659;49.408;11.116;2024-03-08T04:38:23;-2.30;99.90
11204;DHT22;5659;49.408;11.116;2024-03-08T04:40:50;-2.30;99.90
11204;DHT22;5659;49.408;11.116;2024-03-08T04:43:16;-2.30;99.90
11204;DHT22;5659;49.408;11.116;2024-03-08T04:45:44;-2.20;99.90
11204;DHT22;5659;49.408;11.116;2024-03-08T04:48:09;-2.20;99.90
11204;DHT22;5659;49.408;11.116;2024-03-08T04:50:35;-2.20;99.90
11204;DHT22;5659;49.408;11.116;2024-03-08T04:53:00;-2.30;99.90
11204;DHT22;5659;49.408;11.116;2024-03-08T04:55:26;-2.40;99.90
11204;DHT22;5659;49.408;11.116;2024-03-08T04:57:52;-2.40;99.90
11204;DHT22;5659;49.408;11.116;2024-03-08T05:00:18;-2.60;99.90
11204;DHT22;5659;49.408;11.116;2024-03-08T05:02:44;-2.40;99.90
11204;DHT22;5659;49.408;11.116;2024-03-08T05:05:10;-2.40;99.90
11204;DHT22;5659;49.408;11.116;2024-03-08T05:07:39;-2.40;99.90
11204;DHT22;5659;49.408;11.116;2024-03-08T05:10:06;-2.50;99.90
11204;DHT22;5659;49.408;11.116;2024-03-08T05:12:32;-2.40;99.90
11204;DHT22;5659;49.408;11.116;2024-03-08T05:14:58;-2.40;99.90
11204;DHT22;5659;49.408;11.116;2024-03-08T05:17:24;-2.30;99.90
11204;DHT22;5659;49.408;11.116;2024-03-08T05:19:50;-2.30;99.90
11204;DHT22;5659;49.408;11.116;2024-03-08T05:22:16;-2.30;99.90
11204;DHT22;5659;49.408;11.116;2024-03-08T05:24:42;-2.20;99.90
11204;DHT22;5659;49.408;11.116;2024-03-08T05:27:08;-2.20;99.90
11204;DHT22;5659;49.408;11.116;2024-03-08T05:29:34;-2.20;99.90
11204;DHT22;5659;49.408;11.116;2024-03-08T05:31:59;-2.20;99.90
11204;DHT22;5659;49.408;11.116;2024-03-08T05:34:25;-2.30;99.90
11204;DHT22;5659;49.408;11.116;2024-03-08T05:36:51;-2.30;99.90
11204;DHT22;5659;49.408;11.116;2024-03-08T05:39:18;-2.20;99.90
11204;DHT22;5659;49.408;11.116;2024-03-08T05:41:44;-2.20;99.90
11204;DHT22;5659;49.408;11.116;2024-03-08T05:44:10;-2.20;99.90
11204;DHT22;5659;49.408;11.116;2024-03-08T05:46:36;-2.00;99.90
11204;DHT22;5659;49.408;11.116;2024-03-08T05:49:03;-2.20;99.90
11204;DHT22;5659;49.408;11.116;2024-03-08T05:51:36;-2.20;99.90
11204;DHT22;5659;49.408;11.116;2024-03-08T05:54:11;-2.20;99.90
11204;DHT22;5659;49.408;11.116;2024-03-08T05:56:38;-2.20;99.90
11204;DHT22;5659;49.408;11.116;2024-03-08T05:59:04;-2.20;99.90
11204;DHT22;5659;49.408;11.116;2024-03-08T06:01:30;-2.10;99.90
11204;DHT22;5659;49.408;11.116;2024-03-08T06:04:01;-2.10;99.90
11204;DHT22;5659;49.408;11.116;2024-03-08T06:06:27;-2.10;99.90
11204;DHT22;5659;49.408;11.116;2024-03-08T06:08:53;-2.10;99.90
11204;DHT22;5659;49.408;11.116;2024-03-08T06:11:19;-2.10;99.90
11204;DHT22;5659;49.408;11.116;2024-03-08T06:13:48;-2.10;99.90
11204;DHT22;5659;49.408;11.116;2024-03-08T06:16:15;-2.00;99.90
11204;DHT22;5659;49.408;11.116;2024-03-08T06:18:41;-2.00;99.90
11204;DHT22;5659;49.408;11.116;2024-03-08T06:21:07;-2.00;99.90
11204;DHT22;5659;49.408;11.116;2024-03-08T06:23:34;-1.90;99.90
11204;DHT22;5659;49.408;11.116;2024-03-08T06:26:07;-1.90;99.90
11204;DHT22;5659;49.408;11.116;2024-03-08T06:28:32;-1.90;99.90
11204;DHT22;5659;49.408;11.116;2024-03-08T06:31:02;-1.90;99.90
11204;DHT22;5659;49.408;11.116;2024-03-08T06:33:28;-1.80;99.90
11204;DHT22;5659;49.408;11.116;2024-03-08T06:35:54;-1.80;99.90
11204;DHT22;5659;49.408;11.116;2024-03-08T06:38:25;-2.10;99.90
11204;DHT22;5659;49.408;11.116;2024-03-08T06:40:51;-1.60;99.90
11204;DHT22;5659;49.408;11.116;2024-03-08T06:43:18;-1.40;99.90
11204;DHT22;5659;49.408;11.116;2024-03-08T06:45:47;-1.30;99.90
11204;DHT22;5659;49.408;11.116;2024-03-08T06:48:19;-1.20;99.90
11204;DHT22;5659;49.408;11.116;2024-03-08T06:50:45;-1.10;99.90
11204;DHT22;5659;49.408;11.116;2024-03-08T06:53:11;-1.00;99.90
11204;DHT22;5659;49.408;11.116;2024-03-08T06:55:37;-1.00;99.90
11204;DHT22;5659;49.408;11.116;2024-03-08T06:58:03;-0.90;99.90
11204;DHT22;5659;49.408;11.116;2024-03-08T07:00:29;-0.70;99.90
11204;DHT22;5659;49.408;11.116;2024-03-08T07:02:56;-0.60;99.90
11204;DHT22;5659;49.408;11.116;2024-03-08T07:05:23;-0.60;99.90
11204;DHT22;5659;49.408;11.116;2024-03-08T07:07:49;-0.40;99.90
11204;DHT22;5659;49.408;11.116;2024-03-08T07:10:16;-0.30;99.90
11204;DHT22;5659;49.408;11.116;2024-03-08T07:12:42;-0.30;99.90
11204;DHT22;5659;49.408;11.116;2024-03-08T07:15:08;-0.30;99.90
11204;DHT22;5659;49.408;11.116;2024-03-08T07:17:39;-0.10;99.90
11204;DHT22;5659;49.408;11.116;2024-03-08T07:20:05;0.00;99.90
11204;DHT22;5659;49.408;11.116;2024-03-08T07:22:36;0.10;99.90
11204;DHT22;5659;49.408;11.116;2024-03-08T07:25:02;0.20;99.90
11204;DHT22;5659;49.408;11.116;2024-03-08T07:30:16;0.40;99.90
11204;DHT22;5659;49.408;11.116;2024-03-08T07:33:00;0.50;99.90
11204;DHT22;5659;49.408;11.116;2024-03-08T07:35:31;0.60;99.90
11204;DHT22;5659;49.408;11.116;2024-03-08T07:37:56;0.80;99.90
11204;DHT22;5659;49.408;11.116;2024-03-08T07:40:23;0.90;99.90
11204;DHT22;5659;49.408;11.116;2024-03-08T07:42:49;1.00;99.90
11204;DHT22;5659;49.408;11.116;2024-03-08T07:45:15;1.00;99.90
11204;DHT22;5659;49.408;11.116;2024-03-08T07:47:41;1.10;99.90
11204;DHT22;5659;49.408;11.116;2024-03-08T07:50:07;0.70;99.90
11204;DHT22;5659;49.408;11.116;2024-03-08T07:52:36;1.40;99.90
11204;DHT22;5659;49.408;11.116;2024-03-08T07:55:02;1.50;99.90
11204;DHT22;5659;49.408;11.116;2024-03-08T07:57:31;1.60;99.90
11204;DHT22;5659;49.408;11.116;2024-03-08T07:59:57;1.70;99.90
11204;DHT22;5659;49.408;11.116;2024-03-08T08:02:23;1.90;99.90
11204;DHT22;5659;49.408;11.116;2024-03-08T08:04:48;2.10;99.90
11204;DHT22;5659;49.408;11.116;2024-03-08T08:07:14;2.20;99.90
11204;DHT22;5659;49.408;11.116;2024-03-08T08:09:40;2.30;99.90
11204;DHT22;5659;49.408;11.116;2024-03-08T08:12:08;2.50;99.90
11204;DHT22;5659;49.408;11.116;2024-03-08T08:14:37;2.30;99.90
11204;DHT22;5659;49.408;11.116;2024-03-08T08:17:03;2.80;99.90
11204;DHT22;5659;49.408;11.116;2024-03-08T08:19:29;2.90;99.90
11204;DHT22;5659;49.408;11.116;2024-03-08T08:21:55;3.20;99.90
11204;DHT22;5659;49.408;11.116;2024-03-08T08:24:21;3.30;99.90
11204;DHT22;5659;49.408;11.116;2024-03-08T08:26:47;3.50;99.90
11204;DHT22;5659;49.408;11.116;2024-03-08T08:29:13;3.60;99.90
11204;DHT22;5659;49.408;11.116;2024-03-08T08:31:39;3.70;99.90
11204;DHT22;5659;49.408;11.116;2024-03-08T08:34:04;3.80;99.90
11204;DHT22;5659;49.408;11.116;2024-03-08T08:36:31;3.90;99.90
11204;DHT22;5659;49.408;11.116;2024-03-08T08:38:57;3.40;99.90
11204;DHT22;5659;49.408;11.116;2024-03-08T08:41:24;3.90;99.90
11204;DHT22;5659;49.408;11.116;2024-03-08T08:43:49;4.30;99.90
11204;DHT22;5659;49.408;11.116;2024-03-08T08:46:19;4.50;99.90
11204;DHT22;5659;49.408;11.116;2024-03-08T08:48:44;4.60;99.90
11204;DHT22;5659;49.408;11.116;2024-03-08T08:51:13;4.80;99.90
11204;DHT22;5659;49.408;11.116;2024-03-08T08:53:39;4.90;99.90
11204;DHT22;5659;49.408;11.116;2024-03-08T08:56:11;5.00;99.90
11204;DHT22;5659;49.408;11.116;2024-03-08T08:58:39;5.20;99.90
11204;DHT22;5659;49.408;11.116;2024-03-08T09:01:05;5.40;99.90
11204;DHT22;5659;49.408;11.116;2024-03-08T09:03:33;5.30;99.90
11204;DHT22;5659;49.408;11.116;2024-03-08T09:06:00;5.40;99.90
11204;DHT22;5659;49.408;11.116;2024-03-08T09:08:25;5.40;99.90
11204;DHT22;5659;49.408;11.116;2024-03-08T09:10:51;5.50;99.90
11204;DHT22;5659;49.408;11.116;2024-03-08T09:13:18;5.60;99.90
11204;DHT22;5659;49.408;11.116;2024-03-08T09:15:44;5.80;99.90
11204;DHT22;5659;49.408;11.116;2024-03-08T09:18:09;5.90;99.90
11204;DHT22;5659;49.408;11.116;2024-03-08T09:20:35;5.90;99.90
11204;DHT22;5659;49.408;11.116;2024-03-08T09:23:02;5.70;99.90
11204;DHT22;5659;49.408;11.116;2024-03-08T09:25:29;6.40;99.90
11204;DHT22;5659;49.408;11.116;2024-03-08T09:27:55;7.20;99.90
11204;DHT22;5659;49.408;11.116;2024-03-08T09:30:20;6.40;99.90
11204;DHT22;5659;49.408;11.116;2024-03-08T09:32:47;6.40;99.90
11204;DHT22;5659;49.408;11.116;2024-03-08T09:35:12;6.60;99.90
11204;DHT22;5659;49.408;11.116;2024-03-08T09:37:38;6.80;99.90
11204;DHT22;5659;49.408;11.116;2024-03-08T09:40:04;6.60;99.90
11204;DHT22;5659;49.408;11.116;2024-03-08T09:42:35;7.00;99.90
11204;DHT22;5659;49.408;11.116;2024-03-08T09:45:08;6.90;99.90
11204;DHT22;5659;49.408;11.116;2024-03-08T09:47:34;6.90;99.90
11204;DHT22;5659;49.408;11.116;2024-03-08T09:50:08;7.00;99.90
11204;DHT22;5659;49.408;11.116;2024-03-08T09:52:41;7.10;99.90
11204;DHT22;5659;49.408;11.116;2024-03-08T09:55:10;7.30;99.90
11204;DHT22;5659;49.408;11.116;2024-03-08T09:57:40;7.00;99.90
11204;DHT22;5659;49.408;11.116;2024-03-08T10:00:06;7.60;99.90
11204;DHT22;5659;49.408;11.116;2024-03-08T10:02:45;7.80;99.90
11204;DHT22;5659;49.408;11.116;2024-03-08T10:05:12;7.60;99.90
11204;DHT22;5659;49.408;11.116;2024-03-08T10:07:39;7.60;99.90
11204;DHT22;5659;49.408;11.116;2024-03-08T10:10:05;7.60;99.90
11204;DHT22;5659;49.408;11.116;2024-03-08T10:12:30;8.40;99.90
11204;DHT22;5659;49.408;11.116;2024-03-08T10:14:58;8.60;99.90
11204;DHT22;5659;49.408;11.116;2024-03-08T10:17:24;9.70;99.90
11204;DHT22;5659;49.408;11.116;2024-03-08T10:19:50;9.00;99.90
11204;DHT22;5659;49.408;11.116;2024-03-08T10:22:19;9.80;99.90
11204;DHT22;5659;49.408;11.116;2024-03-08T10:24:49;10.50;99.90
11204;DHT22;5659;49.408;11.116;2024-03-08T10:27:16;12.00;99.90
11204;DHT22;5659;49.408;11.116;2024-03-08T10:29:42;13.00;99.90
11204;DHT22;5659;49.408;11.116;2024-03-08T10:32:10;13.80;99.90
11204;DHT22;5659;49.408;11.116;2024-03-08T10:34:35;13.70;99.90
11204;DHT22;5659;49.408;11.116;2024-03-08T10:37:03;14.30;99.90
11204;DHT22;5659;49.408;11.116;2024-03-08T10:39:34;14.40;99.90
11204;DHT22;5659;49.408;11.116;2024-03-08T10:42:03;14.40;99.90
11204;DHT22;5659;49.408;11.116;2024-03-08T10:49:30;15.80;94.20
11204;DHT22;5659;49.408;11.116;2024-03-08T10:52:02;15.70;92.20
11204;DHT22;5659;49.408;11.116;2024-03-08T10:54:28;15.50;90.30
11204;DHT22;5659;49.408;11.116;2024-03-08T10:56:54;15.70;88.00
11204;DHT22;5659;49.408;11.116;2024-03-08T10:59:20;16.00;88.40
11204;DHT22;5659;49.408;11.116;2024-03-08T11:01:46;15.70;81.30
11204;DHT22;5659;49.408;11.116;2024-03-08T11:04:12;15.50;80.30
11204;DHT22;5659;49.408;11.116;2024-03-08T11:09:27;15.90;79.50
11204;DHT22;5659;49.408;11.116;2024-03-08T11:12:19;16.00;74.00
11204;DHT22;5659;49.408;11.116;2024-03-08T11:14:47;16.90;75.70
11204;DHT22;5659;49.408;11.116;2024-03-08T11:17:15;16.80;71.40
11204;DHT22;5659;49.408;11.116;2024-03-08T11:19:49;16.90;70.40
11204;DHT22;5659;49.408;11.116;2024-03-08T11:22:22;16.90;69.50
11204;DHT22;5659;49.408;11.116;2024-03-08T11:24:49;17.20;67.40
11204;DHT22;5659;49.408;11.116;2024-03-08T11:27:15;18.00;67.20
11204;DHT22;5659;49.408;11.116;2024-03-08T11:29:40;17.80;64.50
11204;DHT22;5659;49.408;11.116;2024-03-08T11:32:15;17.90;63.60
11204;DHT22;5659;49.408;11.116;2024-03-08T11:34:46;17.30;62.20
11204;DHT22;5659;49.408;11.116;2024-03-08T11:37:20;17.70;64.60
11204;DHT22;5659;49.408;11.116;2024-03-08T11:39:53;18.10;60.30
11204;DHT22;5659;49.408;11.116;2024-03-08T11:42:24;18.20;61.00
11204;DHT22;5659;49.408;11.116;2024-03-08T11:44:51;18.70;59.00
11204;DHT22;5659;49.408;11.116;2024-03-08T11:47:18;18.90;57.60
11204;DHT22;5659;49.408;11.116;2024-03-08T11:49:43;19.20;56.10
11204;DHT22;5659;49.408;11.116;2024-03-08T11:52:17;19.70;61.30
11204;DHT22;5659;49.408;11.116;2024-03-08T11:54:52;20.30;58.80
11204;DHT22;5659;49.408;11.116;2024-03-08T11:57:23;19.70;56.60
11204;DHT22;5659;49.408;11.116;2024-03-08T11:59:50;19.90;56.30
11204;DHT22;5659;49.408;11.116;2024-03-08T12:02:16;19.80;56.90
11204;DHT22;5659;49.408;11.116;2024-03-08T12:04:42;20.50;54.90
11204;DHT22;5659;49.408;11.116;2024-03-08T12:12:04;18.90;79.00
11204;DHT22;5659;49.408;11.116;2024-03-08T12:16:59;18.80;77.90
11204;DHT22;5659;49.408;11.116;2024-03-08T12:19:29;19.00;75.80
11204;DHT22;5659;49.408;11.116;2024-03-08T12:21:55;19.60;72.80
11204;DHT22;5659;49.408;11.116;2024-03-08T12:26:48;18.90;62.30
11204;DHT22;5659;49.408;11.116;2024-03-08T12:29:20;19.30;65.00
11204;DHT22;5659;49.408;11.116;2024-03-08T12:31:50;19.20;65.40
11204;DHT22;5659;49.408;11.116;2024-03-08T12:39:16;18.50;77.70
11204;DHT22;5659;49.408;11.116;2024-03-08T12:41:42;18.90;71.60
11204;DHT22;5659;49.408;11.116;2024-03-08T12:44:08;18.60;74.90
11204;DHT22;5659;49.408;11.116;2024-03-08T12:46:37;19.10;69.60
11204;DHT22;5659;49.408;11.116;2024-03-08T12:49:08;19.40;68.90
11204;DHT22;5659;49.408;11.116;2024-03-08T12:51:38;19.80;64.10
11204;DHT22;5659;49.408;11.116;2024-03-08T12:54:07;19.80;63.20
11204;DHT22;5659;49.408;11.116;2024-03-08T12:56:34;20.10;61.00
11204;DHT22;5659;49.408;11.116;2024-03-08T12:59:00;20.00;60.40
11204;DHT22;5659;49.408;11.116;2024-03-08T13:01:26;20.40;61.70
11204;DHT22;5659;49.408;11.116;2024-03-08T13:03:53;20.10;61.10
11204;DHT22;5659;49.408;11.116;2024-03-08T13:06:22;19.90;62.00
11204;DHT22;5659;49.408;11.116;2024-03-08T13:08:50;20.20;61.50
11204;DHT22;5659;49.408;11.116;2024-03-08T13:11:16;20.60;62.70
11204;DHT22;5659;49.408;11.116;2024-03-08T13:13:43;20.80;62.80
11204;DHT22;5659;49.408;11.116;2024-03-08T13:16:09;21.00;66.70
11204;DHT22;5659;49.408;11.116;2024-03-08T13:18:38;19.80;71.20
11204;DHT22;5659;49.408;11.116;2024-03-08T13:21:05;19.90;75.30
11204;DHT22;5659;49.408;11.116;2024-03-08T13:23:31;19.90;79.40
11204;DHT22;5659;49.408;11.116;2024-03-08T13:25:57;20.10;78.10
11204;DHT22;5659;49.408;11.116;2024-03-08T13:28:23;20.40;74.90
11204;DHT22;5659;49.408;11.116;2024-03-08T13:30:53;20.20;74.10
11204;DHT22;5659;49.408;11.116;2024-03-08T13:33:19;20.40;72.80
11204;DHT22;5659;49.408;11.116;2024-03-08T13:35:46;20.40;72.30
11204;DHT22;5659;49.408;11.116;2024-03-08T13:38:12;20.40;71.60
11204;DHT22;5659;49.408;11.116;2024-03-08T13:43:06;19.90;62.80
11204;DHT22;5659;49.408;11.116;2024-03-08T13:45:33;19.90;61.30
11204;DHT22;5659;49.408;11.116;2024-03-08T13:47:59;20.40;61.30
11204;DHT22;5659;49.408;11.116;2024-03-08T13:50:25;19.90;61.00
11204;DHT22;5659;49.408;11.116;2024-03-08T13:52:52;19.80;73.00
11204;DHT22;5659;49.408;11.116;2024-03-08T13:55:19;20.70;71.40
11204;DHT22;5659;49.408;11.116;2024-03-08T13:57:45;21.00;65.00
11204;DHT22;5659;49.408;11.116;2024-03-08T14:00:13;20.70;63.40
11204;DHT22;5659;49.408;11.116;2024-03-08T14:05:06;19.60;48.10
11204;DHT22;5659;49.408;11.116;2024-03-08T14:07:34;19.60;49.80
11204;DHT22;5659;49.408;11.116;2024-03-08T14:10:00;19.80;51.40
11204;DHT22;5659;49.408;11.116;2024-03-08T14:12:25;20.20;49.30
11204;DHT22;5659;49.408;11.116;2024-03-08T14:14:52;20.00;50.40
11204;DHT22;5659;49.408;11.116;2024-03-08T14:17:18;20.60;50.30
11204;DHT22;5659;49.408;11.116;2024-03-08T14:19:43;20.10;49.70
11204;DHT22;5659;49.408;11.116;2024-03-08T14:22:09;20.10;50.00
11204;DHT22;5659;49.408;11.116;2024-03-08T14:24:40;19.90;51.10
11204;DHT22;5659;49.408;11.116;2024-03-08T14:27:05;20.20;50.40
11204;DHT22;5659;49.408;11.116;2024-03-08T14:29:34;19.80;48.80
11204;DHT22;5659;49.408;11.116;2024-03-08T14:31:59;20.00;48.70
11204;DHT22;5659;49.408;11.116;2024-03-08T14:34:26;20.20;49.80
11204;DHT22;5659;49.408;11.116;2024-03-08T14:36:53;20.00;50.00
11204;DHT22;5659;49.408;11.116;2024-03-08T14:39:19;20.50;48.90
11204;DHT22;5659;49.408;11.116;2024-03-08T14:41:52;20.40;49.10
11204;DHT22;5659;49.408;11.116;2024-03-08T14:44:19;20.80;48.60
11204;DHT22;5659;49.408;11.116;2024-03-08T14:46:45;20.70;48.60
11204;DHT22;5659;49.408;11.116;2024-03-08T14:49:11;20.10;50.40
11204;DHT22;5659;49.408;11.116;2024-03-08T14:51:37;20.10;60.80
